Estación Meteorológica Peña el Pijo (Robertgarden) [ 01/30/23 13:42:13 CET ]

Fecha Hora Presion(HPa) Temp (°C) Humedad % Rocio (°C) Viento ( m/s) Direccion Lluvia 1Hora(mm) Lluvia 24H(mm) LLuvia Total(mm)
2010-May-19 01:01:13 1017.900 10.7 72 5.9         113.96
2010-May-19 02:01:15 1017.500 9.6 72 4.8         113.96
2010-May-19 03:04:14 1017.000 8.5 75 4.3         113.96
2010-May-19 04:01:17 1016.800 7.9 77 4.1         113.96
2010-May-19 05:01:14 1016.500 7.1 79 3.7         113.96
2010-May-19 06:01:16 1016.400 6.8 80 3.6         113.96
2010-May-19 07:01:14 1016.400 6.6 82 3.7         113.96
2010-May-19 08:01:14 1016.500 9.1 81 6.0         113.96
2010-May-19 09:01:12 1016.600 14.9 61 7.4         113.96
2010-May-19 10:01:16 1016.400 21.6 40 7.4         113.96
2010-May-19 11:01:13 1016.300 23.8 25 2.4         113.96
2010-May-19 12:01:12 1016.100 27.0 22 3.4         113.96
2010-May-19 13:01:15 1015.800 28.1 17 0.2 1.5 ENE     113.96
2010-May-19 14:01:16 1015.100 28.9 19 2.8         113.96
2010-May-19 15:01:19 1014.700 28.4 21 3.9         113.96
2010-May-19 16:01:10 1014.400 29.7 19 3.4         113.96
2010-May-19 17:01:17 1014.000 28.9 19 2.8         113.96
2010-May-19 18:01:14 1013.700 28.8 19 2.7         113.96
2010-May-19 19:01:17 1013.800 27.4 20 2.5         113.96
2010-May-19 20:01:13 1013.700 25.3 23 2.5         113.96
2010-May-19 21:01:12 1014.300 21.0 33 4.0         113.96
2010-May-19 22:01:16 1014.900 17.9 42 4.8         113.96
2010-May-19 23:01:16 1015.700 14.8 54 5.6         113.96

Temperatura Máxima:29°    Temperatura Mínima:
Presión Máxima:1017.900 Hpa    Presión Mínima:1013.700 Hpa


Volver